« Back
NWS Peachtree City, Ga » Text Product » ATL Terminal Aerodrome Forecast


Printer-friendly Version
Current Version              Previous Versions:   1  2  3  4  5  6  7  8  9  

Terminal Aerodrome Forecast

824
FTUS42 KFFC 222046 AAB
TAFATL
TAF AMD
KATL 222046Z 2221/2324 09009KT 2SM -RA BR OVC003
     FM230300 09010KT 2SM -DZ BR OVC003
     FM230800 10008KT 1/2SM -DZ FG OVC002
     FM231500 11007KT 2SM -SHRA BR OVC008
     FM231900 13006KT 6SM -SHRA BR OVC012=

USA.gov is the U.S. government's official web portal to all federal, state and local government web resources and services.